Terminal Aerodrome Forecast
Issued by NWS Wichita, KS

Home | Current Version | Previous Version | Text Only | Print | Product List | Glossary Off
Versions: 1 2 3 4 5 6 7 8 9 10 11 12 13 14 15 16

594
FTUS43 KICT 151415 AAB
TAFICT
TAF AMD
KICT 151415Z 1514/1612 01015KT 6SM -SN OVC015
      TEMPO 1514/1515 3SM -SN BR OVC007
     FM151500 01018G28KT P6SM OVC045
     FM151700 36018G28KT P6SM BKN150
     FM152300 35015G25KT P6SM SKC
     FM160200 35013KT P6SM SKC=

USA.gov is the U.S. government's official web portal to all federal, state and local government web resources and services.